JA6802 RJTI-RJTI

Flight info

Callsign JA6802
Flight time 0h 4m
Altitude 1500
Route HAKOZAKI KOMATSUGAWA
Aircraft R66/L-SDGLOV/S

Departure

Time 2026-04-20 13:11
Airport Tokyo Heliport (RJTI)

Arrival

Time 2026-04-20 13:16
Airport Tokyo Heliport (RJTI)
Time Latitude Longitude Altitude Speed Heading
2026-04-20 13:01 35.63468 139.83801 20 ft 0 kts 92°
2026-04-20 13:09 35.63470 139.83810 35 ft 6 kts 35°
2026-04-20 13:09 35.63514 139.83827 40 ft 14 kts 21°
2026-04-20 13:09 35.63622 139.83836 37 ft 11 kts 34°
2026-04-20 13:09 35.63633 139.83894 45 ft 9 kts 101°
2026-04-20 13:10 35.63617 139.83938 52 ft 6 kts 153°
2026-04-20 13:10 35.63592 139.83946 34 ft 3 kts 185°
2026-04-20 13:10 35.63410 139.83928 116 ft 47 kts 185°
2026-04-20 13:10 35.63275 139.83452 247 ft 75 kts 262°
2026-04-20 13:11 35.63211 139.82826 398 ft 74 kts 258°
2026-04-20 13:11 35.63139 139.82176 501 ft 84 kts 261°
2026-04-20 13:11 35.63299 139.81444 564 ft 93 kts 294°
2026-04-20 13:11 35.63572 139.80743 619 ft 91 kts 291°
2026-04-20 13:12 35.63803 139.79989 596 ft 97 kts 283°
2026-04-20 13:12 35.64150 139.79261 609 ft 102 kts 306°
2026-04-20 13:12 35.64696 139.78708 610 ft 108 kts 343°
2026-04-20 13:12 35.65367 139.78678 897 ft 86 kts
2026-04-20 13:13 35.65998 139.78634 1045 ft 98 kts 349°
2026-04-20 13:13 35.66696 139.78491 1058 ft 105 kts 350°
2026-04-20 13:13 35.67460 139.78375 1026 ft 114 kts 355°
2026-04-20 13:13 35.68222 139.78495 1068 ft 108 kts 38°
2026-04-20 13:14 35.68792 139.78987 1232 ft 100 kts 43°
2026-04-20 13:14 35.69340 139.79418 1248 ft 90 kts 38°
2026-04-20 13:14 35.69874 139.79824 1214 ft 94 kts 41°
2026-04-20 13:14 35.70377 139.80358 1180 ft 93 kts 60°
2026-04-20 13:15 35.70555 139.81049 1219 ft 79 kts 92°
2026-04-20 13:15 35.70659 139.81703 1209 ft 79 kts 90°
2026-04-20 13:15 35.70781 139.82354 1005 ft 81 kts 83°
2026-04-20 13:15 35.70925 139.82996 827 ft 74 kts 83°
2026-04-20 13:16 35.71037 139.83595 738 ft 66 kts 83°
2026-04-20 13:16 35.71105 139.84072 732 ft 45 kts 89°
2026-04-20 13:16 35.71093 139.84437 700 ft 49 kts 102°
2026-04-20 13:16 35.70974 139.84907 640 ft 63 kts 120°
2026-04-20 13:17 35.70663 139.85277 646 ft 54 kts 153°
2026-04-20 13:17 35.70329 139.85426 667 ft 48 kts 155°
2026-04-20 13:17 35.69957 139.85582 474 ft 69 kts 162°
2026-04-20 13:17 35.69421 139.85524 496 ft 86 kts 194°
2026-04-20 13:18 35.68818 139.85272 582 ft 95 kts 197°
2026-04-20 13:18 35.68189 139.84985 622 ft 105 kts 196°
2026-04-20 13:18 35.67471 139.84694 652 ft 109 kts 189°
2026-04-20 13:18 35.66729 139.84625 704 ft 103 kts 180°
2026-04-20 13:19 35.66052 139.84578 692 ft 97 kts 179°
2026-04-20 13:19 35.65410 139.84332 639 ft 93 kts 207°
2026-04-20 13:19 35.64849 139.84047 568 ft 83 kts 187°
2026-04-20 13:19 35.64318 139.83990 451 ft 66 kts 176°
2026-04-20 13:20 35.63963 139.83963 356 ft 38 kts 174°
2026-04-20 13:20 35.63720 139.83952 170 ft 27 kts 182°
2026-04-20 13:20 35.63594 139.83945 44 ft 9 kts 189°
2026-04-20 13:20 35.63560 139.83887 36 ft 10 kts 268°
2026-04-20 13:21 35.63535 139.83828 37 ft 8 kts 192°
2026-04-20 13:21 35.63497 139.83802 33 ft 5 kts 189°
2026-04-20 13:21 35.63487 139.83801 24 ft 0 kts 183°
2026-04-20 13:28 35.63486 139.83801 26 ft 1 kts 178°
2026-04-20 13:28 35.63498 139.83818 36 ft 9 kts 36°
2026-04-20 13:29 35.63583 139.83832 45 ft 11 kts 15°
2026-04-20 13:29 35.63633 139.83864 39 ft 9 kts 95°
2026-04-20 13:29 35.63623 139.83946 48 ft 7 kts 166°
2026-04-20 13:29 35.63548 139.83941 48 ft 31 kts 176°
2026-04-20 13:30 35.63282 139.83748 166 ft 71 kts 256°
2026-04-20 13:30 35.63253 139.83103 310 ft 80 kts 261°
2026-04-20 13:30 35.63191 139.82391 372 ft 90 kts 263°
2026-04-20 13:30 35.63276 139.81595 435 ft 101 kts 292°
2026-04-20 13:31 35.63589 139.80808 567 ft 103 kts 293°
2026-04-20 13:31 35.63832 139.79989 627 ft 105 kts 287°
2026-04-20 13:31 35.64187 139.79174 650 ft 113 kts 308°
2026-04-20 13:31 35.64882 139.78758 770 ft 118 kts 355°
2026-04-20 13:32 35.65688 139.78618 925 ft 116 kts 351°
2026-04-20 13:32 35.66483 139.78463 1034 ft 119 kts 351°
2026-04-20 13:32 35.67313 139.78309 1009 ft 126 kts 351°
2026-04-20 13:32 35.68177 139.78396 1031 ft 126 kts 30°
2026-04-20 13:33 35.68812 139.79026 1236 ft 111 kts 39°
2026-04-20 13:33 35.69429 139.79571 1371 ft 105 kts 40°
2026-04-20 13:33 35.70036 139.80081 1401 ft 109 kts 40°
2026-04-20 13:33 35.70528 139.80756 1324 ft 104 kts 86°
2026-04-20 13:34 35.70661 139.81581 1378 ft 98 kts 85°
2026-04-20 13:34 35.70894 139.82400 1231 ft 102 kts 77°
2026-04-20 13:34 35.71101 139.83248 937 ft 107 kts 82°
2026-04-20 13:34 35.71207 139.84149 763 ft 104 kts 90°
2026-04-20 13:35 35.71056 139.84950 752 ft 94 kts 132°
2026-04-20 13:35 35.70536 139.85345 821 ft 88 kts 153°
2026-04-20 13:35 35.69928 139.85593 704 ft 99 kts 169°
2026-04-20 13:35 35.69216 139.85476 672 ft 106 kts 195°
2026-04-20 13:36 35.68530 139.85120 675 ft 109 kts 202°
2026-04-20 13:36 35.67856 139.84793 737 ft 101 kts 192°
2026-04-20 13:36 35.67187 139.84641 772 ft 96 kts 186°
2026-04-20 13:36 35.66535 139.84573 821 ft 89 kts 178°
2026-04-20 13:37 35.65941 139.84567 747 ft 81 kts 179°
2026-04-20 13:37 35.65432 139.84359 638 ft 79 kts 207°
2026-04-20 13:37 35.64952 139.84073 610 ft 77 kts 191°
2026-04-20 13:37 35.64461 139.84009 581 ft 64 kts 180°
2026-04-20 13:38 35.64052 139.83982 423 ft 51 kts 178°
2026-04-20 13:38 35.63766 139.83956 230 ft 30 kts 173°
2026-04-20 13:38 35.63604 139.83946 63 ft 12 kts 175°
2026-04-20 13:38 35.63559 139.83873 32 ft 11 kts 272°
2026-04-20 13:39 35.63523 139.83825 33 ft 5 kts 189°
2026-04-20 13:39 35.63494 139.83803 31 ft 2 kts 191°
2026-04-20 13:39 35.63488 139.83802 22 ft 0 kts 187°
2026-04-20 13:46 35.63492 139.83805 39 ft 4 kts 60°
2026-04-20 13:46 35.63544 139.83829 40 ft 12 kts 17°
2026-04-20 13:47 35.63617 139.83834 39 ft 7 kts 23°
2026-04-20 13:47 35.63635 139.83870 31 ft 3 kts 97°
2026-04-20 13:47 35.63635 139.83873 27 ft 0 kts 99°
2026-04-20 13:47 35.63635 139.83876 27 ft 0 kts 99°
2026-04-20 13:48 35.63635 139.83877 25 ft 0 kts 98°
2026-04-20 13:48 35.63634 139.83887 39 ft 4 kts 99°
2026-04-20 13:48 35.63626 139.83936 16 ft 7 kts 110°
2026-04-20 13:48 35.63596 139.83947 27 ft 1 kts 181°
2026-04-20 13:49 35.63595 139.83947 35 ft 0 kts 179°
2026-04-20 13:50 35.63592 139.83947 46 ft 1 kts 184°
2026-04-20 13:50 35.63420 139.83925 92 ft 52 kts 187°
2026-04-20 13:50 35.63282 139.83456 245 ft 73 kts 264°
2026-04-20 13:50 35.63237 139.82837 429 ft 74 kts 260°
2026-04-20 13:51 35.63166 139.82181 519 ft 85 kts 260°
2026-04-20 13:51 35.63343 139.81423 504 ft 99 kts 293°
2026-04-20 13:51 35.63611 139.80612 492 ft 107 kts 287°
2026-04-20 13:51 35.63896 139.79765 586 ft 109 kts 296°
2026-04-20 13:52 35.64345 139.79003 669 ft 110 kts 314°
2026-04-20 13:52 35.65063 139.78740 816 ft 105 kts 355°
2026-04-20 13:52 35.65750 139.78620 1058 ft 102 kts 351°
2026-04-20 13:52 35.66484 139.78499 1211 ft 109 kts 348°
2026-04-20 13:53 35.67220 139.78336 1223 ft 108 kts 348°
2026-04-20 13:53 35.67986 139.78345 1148 ft 111 kts 21°
2026-04-20 13:53 35.68646 139.78798 1190 ft 103 kts 35°
2026-04-20 13:53 35.69217 139.79259 1296 ft 94 kts 41°
2026-04-20 13:54 35.69738 139.79713 1310 ft 92 kts 42°
2026-04-20 13:54 35.70289 139.80202 1240 ft 102 kts 42°
2026-04-20 13:54 35.70616 139.80849 1244 ft 85 kts 96°
2026-04-20 13:54 35.70707 139.81522 1202 ft 82 kts 90°
2026-04-20 13:55 35.70843 139.82244 1012 ft 90 kts 84°
2026-04-20 13:55 35.70972 139.83024 754 ft 99 kts 85°
2026-04-20 13:55 35.71063 139.83816 740 ft 90 kts 85°
2026-04-20 13:55 35.71130 139.84558 758 ft 82 kts 100°
2026-04-20 13:56 35.70848 139.85144 686 ft 82 kts 139°
2026-04-20 13:56 35.70351 139.85464 637 ft 78 kts 159°
2026-04-20 13:56 35.69835 139.85634 553 ft 80 kts 174°
2026-04-20 13:56 35.69469 139.85560 563 ft 81 kts 192°
2026-04-20 13:57 35.68898 139.85315 534 ft 93 kts 201°
2026-04-20 13:57 35.68284 139.84936 510 ft 106 kts 204°
2026-04-20 13:57 35.67579 139.84627 527 ft 109 kts 191°
2026-04-20 13:57 35.66827 139.84542 589 ft 104 kts 178°
2026-04-20 13:58 35.65932 139.84516 686 ft 90 kts 182°
2026-04-20 13:58 35.65553 139.84381 693 ft 83 kts 201°
2026-04-20 13:58 35.65065 139.84128 650 ft 71 kts 189°
2026-04-20 13:58 35.64576 139.84037 549 ft 71 kts 182°
2026-04-20 13:59 35.64117 139.83999 422 ft 55 kts 178°
2026-04-20 13:59 35.63853 139.83968 282 ft 29 kts 175°
2026-04-20 13:59 35.63668 139.83951 117 ft 21 kts 172°
2026-04-20 13:59 35.63570 139.83938 62 ft 15 kts 227°
2026-04-20 14:00 35.63554 139.83829 46 ft 7 kts 196°
2026-04-20 14:00 35.63509 139.83811 41 ft 6 kts 198°
2026-04-20 14:00 35.63487 139.83801 25 ft 1 kts 178°